Time;durP1;ratioP1;P1;durP2;ratioP2;P2;SDS_P1;SDS_P2;PMS_P1;PMS_P2;Temp;Humidity;BMP_temperature;BMP_pressure;BME280_temperature;BME280_humidity;BME280_pressure;Samples;Min_cycle;Max_cycle;Signal;HPM_P1;HPM_P2
2022/07/19 00:01:30;;;;;;;10.35;6.13;;;22.00;99.90;;;;;;5085584;28;20243;-85
2022/07/19 00:04:00;;;;;;;8.65;6.07;;;22.00;99.90;;;;;;5090020;28;20208;-86
2022/07/19 00:06:30;;;;;;;7.03;5.88;;;22.10;99.90;;;;;;5106514;28;20184;-87
2022/07/19 00:09:02;;;;;;;6.75;5.68;;;21.80;99.90;;;;;;5097900;28;20203;-85
2022/07/19 00:11:35;;;;;;;7.68;5.60;;;21.70;99.90;;;;;;5091068;28;20200;-85
2022/07/19 00:14:11;;;;;;;8.15;5.95;;;21.70;99.90;;;;;;5093826;28;20204;-84
2022/07/19 00:16:39;;;;;;;7.93;6.05;;;21.50;99.90;;;;;;5087333;28;20226;-85
2022/07/19 00:19:06;;;;;;;8.98;6.35;;;21.40;99.90;;;;;;5102541;28;20291;-88
2022/07/19 00:21:33;;;;;;;8.02;6.07;;;21.40;99.90;;;;;;5086172;28;20840;-85
2022/07/19 00:24:01;;;;;;;10.00;7.35;;;21.40;99.90;;;;;;5084586;28;20220;-85
2022/07/19 00:26:32;;;;;;;9.50;6.30;;;21.30;99.90;;;;;;5081162;28;20287;-86
2022/07/19 00:29:02;;;;;;;10.63;7.82;;;21.30;99.90;;;;;;5085197;28;20588;-85
2022/07/19 00:31:32;;;;;;;9.88;8.13;;;21.50;99.90;;;;;;5079370;28;20689;-84
2022/07/19 00:34:05;;;;;;;7.95;6.82;;;21.10;99.90;;;;;;5077291;28;20195;-86
2022/07/19 00:36:32;;;;;;;7.88;7.07;;;21.00;99.90;;;;;;5080137;28;20204;-86
2022/07/19 00:39:01;;;;;;;8.07;6.68;;;21.00;99.90;;;;;;5086498;28;20207;-85
2022/07/19 00:41:31;;;;;;;10.90;6.30;;;21.00;99.90;;;;;;5081999;28;20204;-86
2022/07/19 00:43:58;;;;;;;9.48;6.40;;;20.90;99.90;;;;;;5085620;28;21057;-86
2022/07/19 00:46:26;;;;;;;8.88;6.25;;;20.90;99.90;;;;;;5097318;28;20628;-84
2022/07/19 00:48:53;;;;;;;6.93;5.82;;;20.80;99.90;;;;;;5080518;28;20684;-84
2022/07/19 00:51:20;;;;;;;8.05;6.00;;;20.90;99.90;;;;;;5077712;28;20211;-85
2022/07/19 00:53:48;;;;;;;9.35;6.30;;;20.90;99.90;;;;;;5080074;28;20222;-85
2022/07/19 00:56:16;;;;;;;6.88;5.65;;;20.80;99.90;;;;;;5086774;28;20718;-85
2022/07/19 00:58:44;;;;;;;6.60;5.90;;;20.70;99.90;;;;;;5088045;28;20657;-86
2022/07/19 01:01:11;;;;;;;9.13;6.30;;;20.70;99.90;;;;;;5088960;28;20222;-85
2022/07/19 01:03:39;;;;;;;9.90;6.63;;;20.70;99.90;;;;;;5082753;28;20830;-86
2022/07/19 01:06:08;;;;;;;7.10;6.40;;;20.60;99.90;;;;;;5080767;28;20202;-86
2022/07/19 01:08:37;;;;;;;7.90;6.60;;;20.60;99.90;;;;;;5079517;28;20620;-84
2022/07/19 01:11:08;;;;;;;8.55;6.82;;;20.60;99.90;;;;;;5085312;28;20683;-85
2022/07/19 01:13:41;;;;;;;8.88;6.78;;;20.50;99.90;;;;;;5090153;28;21082;-87
2022/07/19 01:16:11;;;;;;;7.10;6.40;;;20.40;99.90;;;;;;5085786;28;20224;-84
2022/07/19 01:18:39;;;;;;;10.73;7.13;;;20.40;99.90;;;;;;5082898;28;20269;-84
2022/07/19 01:21:07;;;;;;;8.07;6.93;;;20.80;99.90;;;;;;5092728;28;20207;-88
2022/07/19 01:23:36;;;;;;;7.95;6.65;;;20.70;99.90;;;;;;5105201;28;20719;-86
2022/07/19 01:26:06;;;;;;;9.20;7.13;;;20.80;99.90;;;;;;5081631;28;20208;-86
2022/07/19 01:28:37;;;;;;;9.18;7.50;;;20.70;99.90;;;;;;5084356;28;20215;-85
2022/07/19 01:31:07;;;;;;;11.10;7.28;;;20.30;99.90;;;;;;5084095;28;20239;-86
2022/07/19 01:33:47;;;;;;;8.82;7.28;;;20.60;99.90;;;;;;5086674;28;20696;-86
2022/07/19 01:36:16;;;;;;;9.73;7.45;;;20.10;99.90;;;;;;5082374;28;21476;-85
2022/07/19 01:38:46;;;;;;;11.23;8.20;;;20.10;99.90;;;;;;5087495;28;20200;-85
2022/07/19 01:41:13;;;;;;;9.90;7.88;;;20.00;99.90;;;;;;5090927;28;20206;-85
2022/07/19 01:43:40;;;;;;;9.30;7.20;;;19.90;99.90;;;;;;5083648;28;20251;-84
2022/07/19 01:46:12;;;;;;;9.10;7.80;;;19.90;99.90;;;;;;5085134;28;20579;-85
2022/07/19 01:48:40;;;;;;;9.43;7.68;;;19.90;99.90;;;;;;5081094;28;20211;-85
2022/07/19 01:51:07;;;;;;;10.07;7.32;;;19.80;99.90;;;;;;5075704;28;20589;-86
2022/07/19 01:53:34;;;;;;;10.57;7.60;;;19.90;99.90;;;;;;5078516;28;20705;-85
2022/07/19 01:56:06;;;;;;;9.90;7.75;;;19.80;99.90;;;;;;5077092;28;20260;-85
2022/07/19 01:58:33;;;;;;;9.00;7.60;;;19.80;99.90;;;;;;5086815;28;20201;-85
2022/07/19 02:01:00;;;;;;;9.48;7.03;;;19.80;99.90;;;;;;5084435;28;20223;-86
2022/07/19 02:03:30;;;;;;;10.45;7.88;;;19.80;99.90;;;;;;5081205;28;20263;-87
2022/07/19 02:05:57;;;;;;;10.20;7.38;;;19.90;99.90;;;;;;5079075;28;20201;-84
2022/07/19 02:08:25;;;;;;;8.80;7.05;;;19.80;99.90;;;;;;5079009;28;20212;-85
2022/07/19 02:10:52;;;;;;;7.68;6.55;;;19.70;99.90;;;;;;5081408;28;20215;-85
2022/07/19 02:13:19;;;;;;;6.88;6.05;;;19.70;99.90;;;;;;5076289;28;20293;-85
2022/07/19 02:15:46;;;;;;;9.35;6.75;;;19.70;99.90;;;;;;5086640;28;20216;-86
2022/07/19 02:18:14;;;;;;;9.23;6.93;;;19.70;99.90;;;;;;5081760;28;20692;-85
2022/07/19 02:20:43;;;;;;;10.93;9.07;;;19.60;99.90;;;;;;5079781;28;20207;-85
2022/07/19 02:23:10;;;;;;;10.05;8.35;;;19.70;99.90;;;;;;5082106;28;20256;-84
2022/07/19 02:25:37;;;;;;;9.95;8.27;;;19.60;99.90;;;;;;5086943;28;20681;-85
2022/07/19 02:28:04;;;;;;;10.02;8.48;;;19.50;99.90;;;;;;5088834;28;20227;-85
2022/07/19 02:30:31;;;;;;;10.90;8.63;;;19.50;99.90;;;;;;5085746;28;20263;-87
2022/07/19 02:33:01;;;;;;;10.10;9.10;;;19.60;99.90;;;;;;5085394;28;20208;-84
2022/07/19 02:35:28;;;;;;;12.53;8.73;;;19.40;99.90;;;;;;5088451;28;20203;-84
2022/07/19 02:37:59;;;;;;;9.60;8.27;;;19.40;99.90;;;;;;5087585;28;20281;-85
2022/07/19 02:40:38;;;;;;;11.40;9.20;;;19.30;99.90;;;;;;5107262;28;20211;-85
2022/07/19 02:43:05;;;;;;;9.07;8.05;;;19.70;99.90;;;;;;5105988;28;20322;-86
2022/07/19 02:45:32;;;;;;;10.40;8.67;;;19.70;99.90;;;;;;5111438;28;20192;-86
2022/07/19 02:48:08;;;;;;;11.47;8.57;;;19.60;99.90;;;;;;5116099;28;20211;-85
2022/07/19 02:50:35;;;;;;;9.93;8.40;;;19.70;99.90;;;;;;5109320;28;20227;-85
2022/07/19 02:53:11;;;;;;;9.13;8.00;;;19.10;99.90;;;;;;5116019;28;20229;-86
2022/07/19 02:56:31;;;;;;;8.37;7.40;;;18.60;99.90;;;;;;5110322;28;20192;-86
2022/07/19 02:58:59;;;;;;;8.33;7.43;;;19.00;99.90;;;;;;5092839;28;20204;-86
2022/07/19 03:01:26;;;;;;;10.20;7.73;;;18.80;99.90;;;;;;5097384;28;20212;-84
2022/07/19 03:03:53;;;;;;;9.60;7.97;;;18.90;99.90;;;;;;5090067;28;20224;-88
2022/07/19 03:06:20;;;;;;;9.23;8.40;;;18.30;99.90;;;;;;5089542;28;20633;-85
2022/07/19 03:08:47;;;;;;;10.40;8.60;;;18.90;99.90;;;;;;5089408;28;20199;-85
2022/07/19 03:11:18;;;;;;;9.83;7.80;;;18.90;99.90;;;;;;5086711;28;20213;-85
2022/07/19 03:13:45;;;;;;;7.73;6.97;;;18.80;99.90;;;;;;5087488;28;20231;-86
2022/07/19 03:16:14;;;;;;;8.97;8.03;;;18.80;99.90;;;;;;5079414;28;20211;-85
2022/07/19 03:18:41;;;;;;;9.77;7.40;;;19.20;99.90;;;;;;5079477;28;20207;-85
2022/07/19 03:21:08;;;;;;;12.47;8.10;;;18.70;99.90;;;;;;5069719;28;20203;-85
2022/07/19 03:23:36;;;;;;;10.13;7.70;;;19.10;99.90;;;;;;5075449;28;20782;-85
2022/07/19 03:26:04;;;;;;;10.47;7.43;;;18.80;99.90;;;;;;5083785;28;20208;-84
2022/07/19 03:28:32;;;;;;;9.77;7.50;;;18.60;99.90;;;;;;5085432;28;20287;-86
2022/07/19 03:31:04;;;;;;;8.77;7.87;;;18.60;99.90;;;;;;5086611;28;20958;-87
2022/07/19 03:33:31;;;;;;;11.33;8.90;;;18.90;99.90;;;;;;5085940;28;20208;-87
2022/07/19 03:36:02;;;;;;;11.17;8.57;;;18.60;99.90;;;;;;5083137;28;20624;-87
2022/07/19 03:38:33;;;;;;;9.87;8.43;;;18.70;99.90;;;;;;5081193;28;20282;-85
2022/07/19 03:41:02;;;;;;;9.07;8.20;;;18.70;99.90;;;;;;5083864;28;20207;-86
2022/07/19 03:43:32;;;;;;;10.03;9.03;;;18.90;99.90;;;;;;5086289;28;20283;-85
2022/07/19 03:46:00;;;;;;;13.37;9.07;;;18.80;99.90;;;;;;5083259;28;20211;-84
2022/07/19 03:48:27;;;;;;;11.23;9.20;;;18.50;99.90;;;;;;5081816;28;20206;-85
2022/07/19 03:50:54;;;;;;;10.63;9.20;;;18.90;99.90;;;;;;5085065;28;20259;-87
2022/07/19 03:53:21;;;;;;;10.60;8.90;;;18.50;99.90;;;;;;5080714;28;20260;-85
2022/07/19 03:55:50;;;;;;;10.57;8.50;;;18.40;99.90;;;;;;5082754;28;20223;-87
2022/07/19 03:58:19;;;;;;;10.17;9.13;;;18.40;99.90;;;;;;5083370;28;20211;-86
2022/07/19 04:00:46;;;;;;;11.50;8.63;;;19.10;99.90;;;;;;5083464;28;20632;-84
2022/07/19 04:03:13;;;;;;;9.90;8.60;;;19.00;99.90;;;;;;5085000;28;20236;-86
2022/07/19 04:05:47;;;;;;;10.53;9.43;;;19.20;99.90;;;;;;5088681;28;20203;-86
2022/07/19 04:08:19;;;;;;;13.97;9.33;;;18.80;99.90;;;;;;5084768;28;20212;-86
2022/07/19 04:10:46;;;;;;;11.93;9.63;;;19.50;99.90;;;;;;5082255;28;20227;-85
2022/07/19 04:13:13;;;;;;;10.63;9.43;;;19.20;99.90;;;;;;5086534;28;20239;-83
2022/07/19 04:15:47;;;;;;;11.40;9.13;;;19.30;99.90;;;;;;5077133;28;20216;-88
2022/07/19 04:18:16;;;;;;;11.17;9.07;;;18.60;99.90;;;;;;5083062;28;20281;-84
2022/07/19 04:20:43;;;;;;;11.17;9.17;;;18.50;99.90;;;;;;5082307;28;20227;-86
2022/07/19 04:23:16;;;;;;;10.50;9.43;;;18.50;99.90;;;;;;5096698;28;20231;-85
2022/07/19 04:25:46;;;;;;;11.27;8.87;;;18.40;99.90;;;;;;5108400;28;20209;-86
2022/07/19 04:28:13;;;;;;;11.00;9.27;;;18.50;99.90;;;;;;5106935;28;20200;-86
2022/07/19 04:30:40;;;;;;;11.40;10.20;;;18.70;99.90;;;;;;5106639;28;20211;-86
2022/07/19 04:33:07;;;;;;;13.40;9.73;;;18.60;99.90;;;;;;5098594;28;20203;-86
2022/07/19 04:35:39;;;;;;;10.90;9.80;;;18.70;99.90;;;;;;5087856;28;20199;-85
2022/07/19 04:38:06;;;;;;;13.38;11.18;;;18.50;99.90;;;;;;5093482;28;20207;-85
2022/07/19 04:40:40;;;;;;;12.30;10.60;;;18.70;99.90;;;;;;5093370;28;20225;-86
2022/07/19 04:43:09;;;;;;;12.77;11.38;;;18.70;99.90;;;;;;5091825;28;20219;-85
2022/07/19 04:45:36;;;;;;;12.35;9.95;;;18.80;99.90;;;;;;5090705;28;20220;-85
2022/07/19 04:48:14;;;;;;;13.97;11.00;;;18.80;99.90;;;;;;5087571;28;20208;-85
2022/07/19 04:50:49;;;;;;;12.60;11.00;;;18.80;99.90;;;;;;5081398;28;20252;-86
2022/07/19 04:53:20;;;;;;;11.88;10.68;;;18.90;99.90;;;;;;5077963;28;20742;-84
2022/07/19 04:55:52;;;;;;;14.23;12.68;;;19.00;99.90;;;;;;5093944;28;21038;-86
2022/07/19 04:58:19;;;;;;;14.23;11.98;;;19.10;99.90;;;;;;5102765;28;20220;-86
2022/07/19 05:00:53;;;;;;;13.57;11.85;;;19.50;99.90;;;;;;5110878;28;20279;-84
2022/07/19 05:03:31;;;;;;;14.23;12.63;;;19.30;99.90;;;;;;5103616;28;20224;-93
2022/07/19 05:06:01;;;;;;;16.80;12.50;;;19.40;99.90;;;;;;5104960;28;20631;-84
2022/07/19 05:08:42;;;;;;;15.27;13.73;;;19.50;99.90;;;;;;5096791;28;20605;-87
2022/07/19 05:11:12;;;;;;;17.77;14.35;;;20.10;99.90;;;;;;5094503;28;20204;-91
2022/07/19 05:13:56;;;;;;;14.93;12.90;;;20.00;99.90;;;;;;5099468;28;20208;-90
2022/07/19 05:16:40;;;;;;;13.80;12.40;;;20.10;99.90;;;;;;5092540;28;20275;-90
2022/07/19 05:19:18;;;;;;;15.77;14.15;;;19.90;99.90;;;;;;5095415;28;20295;-88
2022/07/19 05:21:45;;;;;;;13.73;12.27;;;20.20;99.90;;;;;;5078784;28;20199;-88
2022/07/19 05:24:19;;;;;;;14.05;12.65;;;20.10;99.90;;;;;;5079567;28;20239;-85
2022/07/19 05:26:46;;;;;;;15.05;13.32;;;19.60;99.90;;;;;;5087577;28;20260;-86
2022/07/19 05:29:13;;;;;;;17.88;11.85;;;20.50;99.90;;;;;;5080849;28;20234;-86
2022/07/19 05:31:42;;;;;;;25.63;12.45;;;20.40;99.90;;;;;;5105201;28;20218;-87
2022/07/19 05:34:09;;;;;;;24.08;12.65;;;20.60;99.90;;;;;;5090687;28;20297;-86
2022/07/19 05:36:37;;;;;;;19.38;11.85;;;20.70;99.90;;;;;;5099216;28;20207;-88
2022/07/19 05:39:07;;;;;;;18.67;13.60;;;20.80;99.90;;;;;;5088117;28;20188;-93
2022/07/19 05:41:37;;;;;;;23.20;12.45;;;21.00;99.90;;;;;;5099261;28;20292;-87
2022/07/19 05:44:05;;;;;;;26.20;11.57;;;21.30;99.90;;;;;;5096977;28;20266;-86
2022/07/19 05:46:40;;;;;;;22.80;11.23;;;22.10;99.90;;;;;;5083442;28;20216;-83
2022/07/19 05:49:10;;;;;;;14.55;10.70;;;23.10;99.90;;;;;;5080638;28;20196;-84
2022/07/19 05:51:38;;;;;;;18.58;10.70;;;24.20;99.90;;;;;;5075876;28;20201;-84
2022/07/19 05:54:05;;;;;;;20.08;10.18;;;25.20;99.90;;;;;;5076483;28;20229;-84
2022/07/19 05:56:32;;;;;;;20.65;9.70;;;26.40;99.90;;;;;;5083071;28;20208;-87
2022/07/19 05:59:01;;;;;;;20.55;9.82;;;27.00;99.90;;;;;;5086211;28;20208;-85
2022/07/19 06:01:28;;;;;;;17.95;10.43;;;27.80;99.90;;;;;;5082791;28;20226;-85
2022/07/19 06:04:00;;;;;;;12.43;10.68;;;28.40;99.90;;;;;;5081686;28;20593;-84
2022/07/19 06:06:33;;;;;;;18.25;10.60;;;28.90;99.90;;;;;;5073801;28;20584;-85
2022/07/19 06:09:01;;;;;;;14.75;10.82;;;29.50;99.90;;;;;;5079109;28;20549;-84
2022/07/19 06:11:28;;;;;;;16.15;10.82;;;29.90;99.90;;;;;;5080718;28;20204;-84
2022/07/19 06:13:59;;;;;;;16.17;10.32;;;30.40;99.90;;;;;;5081530;28;20212;-84
2022/07/19 06:16:28;;;;;;;15.70;10.85;;;30.80;99.90;;;;;;5077976;28;20231;-84
2022/07/19 06:18:58;;;;;;;13.23;10.35;;;31.10;99.90;;;;;;5076312;28;20303;-84
2022/07/19 06:21:25;;;;;;;13.70;10.98;;;31.20;99.90;;;;;;5076267;28;20295;-86
2022/07/19 06:23:52;;;;;;;18.20;10.68;;;31.50;99.90;;;;;;5084054;28;20251;-85
2022/07/19 06:26:19;;;;;;;11.52;10.35;;;32.00;99.90;;;;;;5076022;28;20330;-85
2022/07/19 06:28:46;;;;;;;12.20;10.68;;;32.60;98.90;;;;;;5079908;28;20214;-85
2022/07/19 06:31:16;;;;;;;11.23;10.13;;;32.90;97.00;;;;;;5076193;28;20591;-85
2022/07/19 06:33:48;;;;;;;13.23;11.50;;;33.30;95.70;;;;;;5083534;28;20200;-84
2022/07/19 06:36:16;;;;;;;13.27;11.05;;;33.50;94.40;;;;;;5076716;28;20211;-85
2022/07/19 06:38:44;;;;;;;11.55;10.13;;;33.80;93.50;;;;;;5097995;28;20204;-85
2022/07/19 06:41:14;;;;;;;17.55;10.88;;;34.10;92.70;;;;;;5083577;28;20203;-86
2022/07/19 06:43:41;;;;;;;13.63;11.70;;;34.50;91.80;;;;;;5080667;28;20719;-84
2022/07/19 06:46:09;;;;;;;15.07;11.18;;;34.70;89.40;;;;;;5084419;28;20211;-85
2022/07/19 06:48:38;;;;;;;14.43;12.20;;;35.00;87.20;;;;;;5083081;28;20199;-85
2022/07/19 06:51:08;;;;;;;14.95;11.93;;;35.30;84.20;;;;;;5075176;28;20663;-85
2022/07/19 06:53:35;;;;;;;14.15;12.80;;;35.60;82.20;;;;;;5079166;28;20712;-86
2022/07/19 06:56:02;;;;;;;18.02;13.90;;;35.80;79.60;;;;;;5080894;28;20199;-84
2022/07/19 06:58:32;;;;;;;17.90;12.85;;;35.80;78.30;;;;;;5082389;28;20283;-85
2022/07/19 07:01:06;;;;;;;15.88;12.98;;;35.90;76.50;;;;;;5080197;28;20306;-84
2022/07/19 07:03:37;;;;;;;21.08;13.38;;;35.90;74.70;;;;;;5085035;28;20230;-85
2022/07/19 07:06:04;;;;;;;13.90;12.43;;;36.10;73.00;;;;;;5078466;28;20702;-85
2022/07/19 07:08:33;;;;;;;16.35;12.38;;;36.20;72.60;;;;;;5083985;28;20203;-85
2022/07/19 07:11:03;;;;;;;17.48;12.57;;;36.20;72.20;;;;;;5074888;28;20567;-85
2022/07/19 07:13:30;;;;;;;15.38;13.15;;;36.20;71.90;;;;;;5086505;28;20582;-85
2022/07/19 07:15:57;;;;;;;17.63;12.77;;;36.20;70.40;;;;;;5083063;28;20293;-85
2022/07/19 07:18:24;;;;;;;19.40;13.73;;;36.10;70.50;;;;;;5080293;28;20208;-85
2022/07/19 07:20:51;;;;;;;16.50;13.68;;;36.30;70.00;;;;;;5080497;28;20203;-86
2022/07/19 07:23:19;;;;;;;18.23;12.73;;;36.30;69.20;;;;;;5085776;28;20254;-85
2022/07/19 07:25:46;;;;;;;17.60;12.90;;;36.30;69.60;;;;;;5083808;28;20211;-86
2022/07/19 07:28:13;;;;;;;19.52;12.65;;;36.40;69.30;;;;;;5083990;28;20786;-85
2022/07/19 07:30:40;;;;;;;19.95;13.00;;;36.70;69.50;;;;;;5081390;28;20241;-85
2022/07/19 07:33:07;;;;;;;21.02;13.35;;;36.80;70.40;;;;;;5085485;28;20199;-85
2022/07/19 07:35:34;;;;;;;19.40;13.43;;;37.00;70.40;;;;;;5075961;28;20247;-86
2022/07/19 07:38:01;;;;;;;23.48;13.75;;;37.10;69.80;;;;;;5079921;28;20210;-85
2022/07/19 07:40:28;;;;;;;17.65;12.85;;;37.10;69.80;;;;;;5084417;28;20690;-84
2022/07/19 07:42:56;;;;;;;23.30;13.48;;;37.20;69.90;;;;;;5078830;28;20667;-85
2022/07/19 07:45:23;;;;;;;18.35;11.60;;;37.50;69.20;;;;;;5085602;28;20231;-85
2022/07/19 07:47:50;;;;;;;17.30;12.30;;;37.70;67.20;;;;;;5081435;28;20247;-85
2022/07/19 07:50:20;;;;;;;18.02;11.25;;;37.90;66.90;;;;;;5075676;28;20224;-84
2022/07/19 07:52:47;;;;;;;18.25;10.75;;;37.90;66.90;;;;;;5074800;28;20229;-84
2022/07/19 07:55:14;;;;;;;18.63;9.23;;;37.80;66.00;;;;;;5081691;28;20252;-85
2022/07/19 07:57:54;;;;;;;18.45;7.60;;;37.80;64.70;;;;;;5088346;28;20786;-83
2022/07/19 08:00:22;;;;;;;11.45;6.07;;;37.90;62.90;;;;;;5083772;28;20296;-86
2022/07/19 08:02:49;;;;;;;10.65;5.97;;;37.80;62.70;;;;;;5086147;28;20306;-86
2022/07/19 08:05:21;;;;;;;8.65;5.55;;;37.70;62.10;;;;;;5083127;28;20238;-85
2022/07/19 08:07:50;;;;;;;11.10;5.00;;;37.70;61.80;;;;;;5088678;28;20206;-84
2022/07/19 08:10:20;;;;;;;8.63;5.20;;;37.60;61.30;;;;;;5083829;28;20318;-85
2022/07/19 08:12:47;;;;;;;12.10;4.25;;;37.50;61.20;;;;;;5087083;28;20203;-84
2022/07/19 08:15:14;;;;;;;5.97;4.55;;;37.50;62.20;;;;;;5085091;28;20229;-84
2022/07/19 08:17:41;;;;;;;8.88;4.35;;;37.60;60.90;;;;;;5085634;28;20208;-85
2022/07/19 08:20:08;;;;;;;10.05;4.63;;;37.70;60.70;;;;;;5077244;28;20218;-84
2022/07/19 08:22:35;;;;;;;8.73;4.15;;;37.80;60.30;;;;;;5084972;28;20285;-85
2022/07/19 08:25:05;;;;;;;10.70;4.13;;;37.80;59.80;;;;;;5088356;28;20227;-84
2022/07/19 08:27:33;;;;;;;9.85;3.97;;;37.90;59.40;;;;;;5088015;28;20651;-85
2022/07/19 08:30:01;;;;;;;5.88;4.00;;;38.00;59.60;;;;;;5088881;28;20215;-85
2022/07/19 08:32:35;;;;;;;10.10;4.20;;;38.10;59.50;;;;;;5081939;28;20206;-85
2022/07/19 08:35:02;;;;;;;9.18;3.45;;;38.00;59.20;;;;;;5076262;28;21000;-86
2022/07/19 08:37:32;;;;;;;9.60;3.67;;;38.00;59.40;;;;;;5081893;28;20204;-84
2022/07/19 08:39:59;;;;;;;15.13;3.70;;;38.10;58.60;;;;;;5088305;28;20686;-85
2022/07/19 08:42:26;;;;;;;6.85;3.45;;;38.10;57.90;;;;;;5087124;28;20287;-85
2022/07/19 08:45:07;;;;;;;7.28;3.33;;;38.10;57.30;;;;;;5083926;28;20237;-85
2022/07/19 08:47:35;;;;;;;7.57;3.70;;;38.00;57.30;;;;;;5088069;28;20214;-86
2022/07/19 08:50:05;;;;;;;6.30;3.58;;;38.00;57.10;;;;;;5080030;28;20228;-86
2022/07/19 08:52:33;;;;;;;8.05;3.70;;;38.10;57.50;;;;;;5077734;28;20202;-84
2022/07/19 08:55:01;;;;;;;9.05;4.05;;;38.20;57.40;;;;;;5086954;28;20214;-85
2022/07/19 09:00:14;;;;;;;7.13;3.30;;;38.30;57.40;;;;;;5084452;28;20269;-86
2022/07/19 09:02:56;;;;;;;6.53;3.47;;;38.50;57.70;;;;;;5084078;28;20238;-85
2022/07/19 09:05:33;;;;;;;6.50;3.53;;;38.70;57.80;;;;;;5076496;28;20980;-85
2022/07/19 09:08:08;;;;;;;7.10;4.13;;;38.80;57.90;;;;;;5078900;28;20208;-85
2022/07/19 09:10:38;;;;;;;9.20;3.97;;;38.80;57.30;;;;;;5085118;28;20207;-85
2022/07/19 09:13:10;;;;;;;7.15;3.70;;;38.80;57.20;;;;;;5085430;28;20195;-85
2022/07/19 09:15:50;;;;;;;8.75;4.47;;;38.70;57.00;;;;;;5083816;28;20226;-86
2022/07/19 09:18:22;;;;;;;9.02;4.35;;;38.70;56.40;;;;;;5086507;28;20584;-85
2022/07/19 09:20:54;;;;;;;10.43;3.80;;;38.60;56.20;;;;;;5079596;28;20957;-85
2022/07/19 09:23:22;;;;;;;9.25;3.80;;;38.60;56.00;;;;;;5081116;28;20231;-85
2022/07/19 09:25:55;;;;;;;6.40;3.55;;;38.40;56.50;;;;;;5086784;28;20687;-86
2022/07/19 09:28:24;;;;;;;8.10;3.75;;;38.40;56.90;;;;;;5087337;28;20207;-85
2022/07/19 09:30:55;;;;;;;7.05;3.95;;;38.40;57.50;;;;;;5087341;28;20215;-85
2022/07/19 09:33:25;;;;;;;6.55;3.70;;;38.50;57.10;;;;;;5079235;28;20649;-86
2022/07/19 09:36:15;;;;;;;7.43;3.17;;;38.60;56.90;;;;;;5084124;28;20196;-86
2022/07/19 09:38:43;;;;;;;8.27;3.75;;;38.80;56.40;;;;;;5094952;28;20225;-85
2022/07/19 09:41:14;;;;;;;9.80;3.47;;;38.90;56.20;;;;;;5086532;28;20207;-86
2022/07/19 09:43:54;;;;;;;6.63;3.47;;;38.90;55.80;;;;;;5093192;28;20203;-86
2022/07/19 09:46:31;;;;;;;6.15;3.90;;;38.90;56.50;;;;;;5099044;28;20215;-85
2022/07/19 09:49:08;;;;;;;8.45;3.30;;;38.90;56.70;;;;;;5100425;28;20294;-83
2022/07/19 09:51:39;;;;;;;5.68;3.28;;;38.90;55.70;;;;;;5097494;28;20204;-85
2022/07/19 09:54:10;;;;;;;8.65;3.08;;;38.90;55.00;;;;;;5103052;28;20203;-84
2022/07/19 09:56:40;;;;;;;6.65;3.15;;;38.80;55.30;;;;;;5099096;28;20238;-85
2022/07/19 09:59:11;;;;;;;13.10;3.30;;;38.80;54.30;;;;;;5101991;28;20210;-86
2022/07/19 10:01:39;;;;;;;5.20;2.92;;;38.80;54.20;;;;;;5091951;28;20684;-84
2022/07/19 10:04:18;;;;;;;5.00;2.50;;;38.80;53.60;;;;;;5090289;28;20227;-85
2022/07/19 10:06:47;;;;;;;4.13;2.65;;;38.70;53.20;;;;;;5085171;28;20215;-86
2022/07/19 10:09:17;;;;;;;6.55;3.03;;;38.70;53.40;;;;;;5081563;28;20207;-85
2022/07/19 10:11:48;;;;;;;7.88;2.92;;;38.60;53.40;;;;;;5085394;28;20211;-86
2022/07/19 10:14:16;;;;;;;7.28;2.88;;;38.60;53.50;;;;;;5096811;28;20789;-85
2022/07/19 10:16:49;;;;;;;4.13;2.50;;;38.60;52.90;;;;;;5077306;28;20680;-85
2022/07/19 10:19:33;;;;;;;5.82;2.70;;;38.70;52.70;;;;;;5084545;28;20282;-85
2022/07/19 10:22:01;;;;;;;6.95;3.08;;;38.60;52.20;;;;;;5081928;28;20683;-85
2022/07/19 10:24:53;;;;;;;5.90;2.70;;;38.60;53.20;;;;;;5081783;28;20314;-85
2022/07/19 10:27:23;;;;;;;5.68;3.10;;;38.50;53.20;;;;;;5082985;28;20207;-85
2022/07/19 10:29:51;;;;;;;4.55;2.78;;;38.50;52.70;;;;;;5078376;28;20210;-85
2022/07/19 10:32:30;;;;;;;9.23;2.90;;;38.40;52.80;;;;;;5083745;28;20629;-86
2022/07/19 10:35:17;;;;;;;6.55;2.95;;;38.40;52.10;;;;;;5079317;28;20229;-85
2022/07/19 10:38:01;;;;;;;7.47;2.97;;;38.40;52.20;;;;;;5078882;28;20225;-85
2022/07/19 10:40:40;;;;;;;9.68;2.75;;;38.30;53.10;;;;;;5084163;28;20211;-85
2022/07/19 10:43:20;;;;;;;9.65;2.78;;;38.40;52.80;;;;;;5081212;28;20200;-86
2022/07/19 10:45:56;;;;;;;5.68;2.83;;;38.40;53.10;;;;;;5080675;28;20232;-86
2022/07/19 10:48:47;;;;;;;12.00;3.33;;;38.50;52.90;;;;;;5084369;28;20238;-86
2022/07/19 10:51:34;;;;;;;10.55;3.30;;;38.50;52.90;;;;;;5080639;28;20265;-86
2022/07/19 10:54:06;;;;;;;8.82;3.00;;;38.40;52.70;;;;;;5082454;28;20206;-86
2022/07/19 10:56:41;;;;;;;4.00;2.72;;;38.30;52.90;;;;;;5082323;28;20217;-85
2022/07/19 10:59:40;;;;;;;9.73;2.80;;;38.40;53.00;;;;;;5079374;28;20241;-84
2022/07/19 11:02:23;;;;;;;9.85;2.78;;;38.40;53.50;;;;;;5083258;28;20234;-87
2022/07/19 11:05:27;;;;;;;5.75;2.78;;;38.60;53.00;;;;;;5076854;28;20314;-86
2022/07/19 11:07:57;;;;;;;4.25;2.40;;;38.50;52.30;;;;;;5086676;28;20203;-89
2022/07/19 11:10:29;;;;;;;5.40;2.78;;;38.40;52.50;;;;;;5086160;28;20350;-86
2022/07/19 11:12:58;;;;;;;5.20;2.55;;;38.40;52.70;;;;;;5078110;28;20680;-86
2022/07/19 11:15:28;;;;;;;6.43;2.70;;;38.30;52.50;;;;;;5076394;28;21009;-85
2022/07/19 11:18:06;;;;;;;6.20;2.80;;;38.20;51.80;;;;;;5079920;28;20257;-85
2022/07/19 11:20:36;;;;;;;5.35;2.67;;;38.20;51.20;;;;;;5078275;28;20196;-84
2022/07/19 11:23:05;;;;;;;5.13;2.55;;;38.20;51.20;;;;;;5082618;28;20213;-85
2022/07/19 11:25:38;;;;;;;7.03;2.50;;;38.10;50.90;;;;;;5088686;28;20703;-85
2022/07/19 11:28:06;;;;;;;5.60;2.95;;;38.10;50.90;;;;;;5078584;28;20202;-86
2022/07/19 11:30:35;;;;;;;7.47;2.78;;;38.20;50.80;;;;;;5079800;28;20314;-85
2022/07/19 11:33:05;;;;;;;12.75;3.28;;;38.20;50.90;;;;;;5080239;28;20204;-84
2022/07/19 11:35:39;;;;;;;11.38;2.80;;;38.20;51.20;;;;;;5078046;28;20215;-85
2022/07/19 11:38:07;;;;;;;7.00;3.13;;;38.30;51.70;;;;;;5075259;28;20265;-84
2022/07/19 11:40:36;;;;;;;8.48;2.75;;;38.30;51.30;;;;;;5080711;28;20758;-83
2022/07/19 11:43:07;;;;;;;6.93;2.60;;;38.20;51.40;;;;;;5085627;28;20199;-85
2022/07/19 11:45:47;;;;;;;3.97;2.47;;;38.20;50.80;;;;;;5080772;28;20230;-87
2022/07/19 11:48:32;;;;;;;7.68;2.45;;;38.20;50.10;;;;;;5078300;28;20264;-84
2022/07/19 11:51:02;;;;;;;12.80;2.95;;;38.10;50.80;;;;;;5079738;28;20219;-85
2022/07/19 11:53:34;;;;;;;4.97;2.40;;;38.20;50.40;;;;;;5087131;28;20208;-86
2022/07/19 11:56:02;;;;;;;5.85;2.65;;;38.30;50.00;;;;;;5083834;28;20219;-85
2022/07/19 11:58:33;;;;;;;4.40;2.65;;;38.40;49.70;;;;;;5097681;28;20195;-86
2022/07/19 12:01:05;;;;;;;4.38;2.20;;;38.50;49.30;;;;;;5097748;28;20203;-88
2022/07/19 12:03:36;;;;;;;6.00;2.47;;;38.50;50.20;;;;;;5113423;28;20240;-87
2022/07/19 12:06:07;;;;;;;7.10;2.38;;;38.40;49.50;;;;;;5080414;28;20608;-87
2022/07/19 12:08:44;;;;;;;4.65;2.25;;;38.60;49.00;;;;;;5084767;28;20191;-88
2022/07/19 12:11:23;;;;;;;5.05;2.10;;;38.60;48.60;;;;;;5082560;28;20200;-86
2022/07/19 12:13:52;;;;;;;7.07;2.75;;;38.70;49.00;;;;;;5085117;28;20680;-85
2022/07/19 12:16:20;;;;;;;8.23;2.63;;;38.70;48.70;;;;;;5080684;28;20207;-87
2022/07/19 12:18:51;;;;;;;4.45;2.40;;;38.60;48.80;;;;;;5085313;28;20237;-88
2022/07/19 12:21:34;;;;;;;4.72;2.20;;;38.60;49.10;;;;;;5092792;28;20210;-87
2022/07/19 12:24:21;;;;;;;5.72;2.70;;;38.60;48.70;;;;;;5089722;28;20203;-86
2022/07/19 12:27:00;;;;;;;2.90;1.90;;;38.60;49.40;;;;;;5089043;28;20195;-87
2022/07/19 12:29:32;;;;;;;3.63;2.10;;;38.70;48.50;;;;;;5091740;28;20203;-85
2022/07/19 12:32:02;;;;;;;6.50;2.65;;;38.80;48.60;;;;;;5090217;28;20228;-86
2022/07/19 12:34:42;;;;;;;5.68;2.42;;;38.90;48.50;;;;;;5096271;28;20253;-89
2022/07/19 12:37:35;;;;;;;6.72;1.95;;;39.00;47.80;;;;;;5085958;28;20227;-88
2022/07/19 12:40:23;;;;;;;6.47;2.70;;;39.00;47.50;;;;;;5111573;28;20203;-88
2022/07/19 12:42:59;;;;;;;3.70;2.03;;;39.00;47.30;;;;;;5118291;28;20199;-87
2022/07/19 12:45:48;;;;;;;4.70;2.13;;;39.10;47.00;;;;;;5103802;28;20284;-86
2022/07/19 12:48:16;;;;;;;6.28;2.33;;;39.10;46.70;;;;;;5102884;28;20199;-87
2022/07/19 12:50:48;;;;;;;2.40;1.92;;;39.10;46.90;;;;;;5097815;28;20211;-88
2022/07/19 12:53:20;;;;;;;4.78;2.00;;;39.30;46.50;;;;;;5089496;28;20624;-87
2022/07/19 12:55:49;;;;;;;5.07;2.40;;;39.40;46.30;;;;;;5092716;28;20286;-87
2022/07/19 12:59:38;;;;;;;4.78;2.33;;;39.40;46.20;;;;;;5094892;28;20204;-86
2022/07/19 13:01:06;;;;;;;6.68;2.42;;;39.50;46.30;;;;;;5090422;28;20324;-86
2022/07/19 13:03:34;;;;;;;5.35;2.65;;;39.50;46.60;;;;;;5093616;28;20235;-86